Time;durP1;ratioP1;P1;durP2;ratioP2;P2;SDS_P1;SDS_P2;PMS_P1;PMS_P2;Temp;Humidity;BMP_temperature;BMP_pressure;BME280_temperature;BME280_humidity;BME280_pressure;Samples;Min_cycle;Max_cycle;Signal;HPM_P1;HPM_P2
2021/01/10 00:00:21;;;;;;;19.50;11.38;;;3.30;98.50;;;;;;5055259;28;20035;-71
2021/01/10 00:02:48;;;;;;;24.10;12.75;;;3.30;98.50;;;;;;5073439;28;20029;-71
2021/01/10 00:05:19;;;;;;;25.77;12.75;;;3.20;98.50;;;;;;5058218;28;20041;-71
2021/01/10 00:07:45;;;;;;;24.60;12.88;;;3.20;98.50;;;;;;5053035;28;20033;-73
2021/01/10 00:10:11;;;;;;;22.88;12.27;;;3.20;98.60;;;;;;5053295;28;20025;-72
2021/01/10 00:12:38;;;;;;;24.15;12.70;;;3.20;98.70;;;;;;5054878;28;20021;-73
2021/01/10 00:15:05;;;;;;;25.33;12.38;;;3.20;98.50;;;;;;5074871;28;20035;-71
2021/01/10 00:17:31;;;;;;;24.60;12.73;;;3.30;98.60;;;;;;5055575;28;20029;-72
2021/01/10 00:19:56;;;;;;;21.45;11.52;;;3.10;98.50;;;;;;5066304;28;20450;-72
2021/01/10 00:22:23;;;;;;;25.75;12.73;;;3.10;98.70;;;;;;5073247;28;20044;-71
2021/01/10 00:24:49;;;;;;;21.50;11.40;;;3.10;98.70;;;;;;5073032;28;20028;-71
2021/01/10 00:27:17;;;;;;;23.48;12.38;;;3.20;98.80;;;;;;5074579;28;20024;-73
2021/01/10 00:29:46;;;;;;;25.35;13.52;;;3.10;98.70;;;;;;5053543;28;20036;-72
2021/01/10 00:32:12;;;;;;;22.08;12.45;;;3.10;98.80;;;;;;5051957;28;20052;-72
2021/01/10 00:34:38;;;;;;;21.25;12.25;;;3.10;98.80;;;;;;5052887;28;20449;-72
2021/01/10 00:37:17;;;;;;;24.92;13.05;;;3.10;98.80;;;;;;5058375;28;20035;-72
2021/01/10 00:39:44;;;;;;;23.73;12.70;;;3.00;98.90;;;;;;5072840;28;20347;-71
2021/01/10 00:42:12;;;;;;;20.88;13.02;;;3.00;99.00;;;;;;5074239;28;20025;-71
2021/01/10 00:44:39;;;;;;;22.00;12.07;;;3.00;98.90;;;;;;5054273;28;20033;-70
2021/01/10 00:47:04;;;;;;;20.73;11.20;;;3.10;98.90;;;;;;5052581;28;20041;-72
2021/01/10 00:49:30;;;;;;;25.73;12.43;;;3.00;98.90;;;;;;5061569;28;20037;-71
2021/01/10 00:51:56;;;;;;;19.13;11.55;;;2.90;98.90;;;;;;5072442;28;20119;-72
2021/01/10 00:54:22;;;;;;;23.50;12.43;;;2.90;99.00;;;;;;5074039;28;20116;-72
2021/01/10 00:56:48;;;;;;;21.17;12.23;;;2.90;99.00;;;;;;5072658;28;20037;-72
2021/01/10 00:59:14;;;;;;;17.92;11.15;;;2.80;98.90;;;;;;5072526;28;20071;-72
2021/01/10 01:01:40;;;;;;;17.35;10.55;;;2.90;98.90;;;;;;5071396;28;20093;-72
2021/01/10 01:04:06;;;;;;;21.40;12.07;;;2.90;99.00;;;;;;5072140;28;20037;-72
2021/01/10 01:06:31;;;;;;;23.85;12.48;;;2.80;99.10;;;;;;5070252;28;20132;-72
2021/01/10 01:08:57;;;;;;;21.08;11.70;;;2.80;99.00;;;;;;5053645;28;20029;-70
2021/01/10 01:11:34;;;;;;;21.67;11.25;;;2.80;98.90;;;;;;5068039;28;20039;-72
2021/01/10 01:14:00;;;;;;;27.83;12.75;;;2.80;98.90;;;;;;5072109;28;20029;-72
2021/01/10 01:16:26;;;;;;;23.42;11.32;;;2.90;99.10;;;;;;5071935;28;20024;-72
2021/01/10 01:18:52;;;;;;;20.50;10.82;;;2.80;99.00;;;;;;5068012;28;20086;-71
2021/01/10 01:21:19;;;;;;;19.15;11.15;;;2.90;99.00;;;;;;5053666;28;20102;-72
2021/01/10 01:23:45;;;;;;;22.50;12.18;;;2.90;99.00;;;;;;5071390;28;20484;-72
2021/01/10 01:26:21;;;;;;;22.75;12.32;;;3.00;99.10;;;;;;5071227;28;20084;-72
2021/01/10 01:28:48;;;;;;;24.00;12.52;;;3.10;99.10;;;;;;5071265;28;20131;-72
2021/01/10 01:31:16;;;;;;;20.40;11.15;;;3.20;99.00;;;;;;5071787;28;20039;-71
2021/01/10 01:33:43;;;;;;;24.70;12.60;;;3.20;98.90;;;;;;5071504;28;20067;-72
2021/01/10 01:36:17;;;;;;;22.67;12.25;;;3.20;98.90;;;;;;5073456;28;20063;-71
2021/01/10 01:38:45;;;;;;;22.33;12.35;;;3.20;99.00;;;;;;5072112;28;20071;-72
2021/01/10 01:41:11;;;;;;;19.00;11.07;;;3.20;98.90;;;;;;5072130;28;20124;-72
2021/01/10 01:43:38;;;;;;;23.85;12.07;;;3.10;99.10;;;;;;5071965;28;20447;-72
2021/01/10 01:46:05;;;;;;;21.42;12.38;;;3.30;99.10;;;;;;5066432;28;20048;-72
2021/01/10 01:48:31;;;;;;;21.60;12.15;;;3.20;99.00;;;;;;5051054;28;20145;-72
2021/01/10 01:50:58;;;;;;;18.83;11.35;;;3.20;99.10;;;;;;5073027;28;20358;-72
2021/01/10 01:53:24;;;;;;;18.23;11.50;;;3.30;98.90;;;;;;5071590;28;20174;-72
2021/01/10 01:55:55;;;;;;;23.77;12.10;;;3.30;98.90;;;;;;5058789;28;20087;-73
2021/01/10 01:58:25;;;;;;;22.65;11.82;;;3.30;98.90;;;;;;5059336;28;20085;-72
2021/01/10 02:00:51;;;;;;;22.17;11.40;;;3.30;98.90;;;;;;5070576;28;20427;-72
2021/01/10 02:03:28;;;;;;;22.85;11.85;;;3.10;98.80;;;;;;5073022;28;20029;-72
2021/01/10 02:05:59;;;;;;;22.05;11.60;;;3.20;99.10;;;;;;5051896;28;20037;-70
2021/01/10 02:08:30;;;;;;;20.42;11.50;;;3.20;99.00;;;;;;5068310;28;20075;-70
2021/01/10 02:10:59;;;;;;;23.00;11.48;;;3.10;99.10;;;;;;5071470;28;20123;-71
2021/01/10 02:13:29;;;;;;;21.88;11.85;;;3.10;99.10;;;;;;5073545;28;20032;-72
2021/01/10 02:15:54;;;;;;;23.98;12.82;;;3.10;99.20;;;;;;5075481;28;20484;-72
2021/01/10 02:18:22;;;;;;;24.60;12.50;;;3.20;99.20;;;;;;5077129;28;20071;-72
2021/01/10 02:20:48;;;;;;;25.10;12.73;;;3.20;99.20;;;;;;5075899;28;20043;-72
2021/01/10 02:23:26;;;;;;;24.98;11.82;;;3.40;99.20;;;;;;5075524;28;20804;-71
2021/01/10 02:25:54;;;;;;;24.65;12.40;;;3.40;99.10;;;;;;5075410;28;20051;-71
2021/01/10 02:28:25;;;;;;;22.80;12.45;;;3.40;99.10;;;;;;5075480;28;20365;-71
2021/01/10 02:30:52;;;;;;;24.70;11.77;;;3.40;99.10;;;;;;5075061;28;20036;-72
2021/01/10 02:33:46;;;;;;;27.33;13.60;;;3.40;99.00;;;;;;5076554;28;20480;-72
2021/01/10 02:36:37;;;;;;;19.38;11.52;;;3.40;99.20;;;;;;5075427;28;20070;-72
2021/01/10 02:39:18;;;;;;;21.63;12.88;;;3.50;99.00;;;;;;5075132;28;20102;-71
2021/01/10 02:41:49;;;;;;;24.70;12.02;;;3.50;99.00;;;;;;5074070;28;20040;-71
2021/01/10 02:44:17;;;;;;;23.63;12.70;;;3.50;99.00;;;;;;5074688;28;20040;-72
2021/01/10 02:46:48;;;;;;;26.95;12.82;;;3.50;99.10;;;;;;5075198;28;20024;-72
2021/01/10 02:49:14;;;;;;;28.05;13.48;;;3.60;99.00;;;;;;5074869;28;20075;-71
2021/01/10 02:51:39;;;;;;;25.48;12.18;;;3.70;98.90;;;;;;5073679;28;20028;-72
2021/01/10 02:54:05;;;;;;;24.98;12.93;;;3.70;98.80;;;;;;5076188;28;20515;-72
2021/01/10 02:56:35;;;;;;;23.42;12.80;;;3.80;98.80;;;;;;5074468;28;20037;-71
2021/01/10 02:59:02;;;;;;;24.48;12.40;;;3.80;98.80;;;;;;5074734;28;20044;-72
2021/01/10 03:01:28;;;;;;;24.30;12.23;;;3.70;98.70;;;;;;5074595;28;20086;-71
2021/01/10 03:03:55;;;;;;;33.80;13.23;;;3.80;98.80;;;;;;5074552;28;20028;-71
2021/01/10 03:06:22;;;;;;;20.60;12.52;;;3.80;98.80;;;;;;5076185;28;20031;-71
2021/01/10 03:08:49;;;;;;;25.57;12.87;;;3.80;98.70;;;;;;5074929;28;20037;-72
2021/01/10 03:11:15;;;;;;;22.88;11.80;;;3.70;98.90;;;;;;5074207;28;20054;-71
2021/01/10 03:13:41;;;;;;;22.83;12.65;;;3.60;98.90;;;;;;5074164;28;20033;-71
2021/01/10 03:16:08;;;;;;;23.73;13.25;;;3.60;99.00;;;;;;5074263;28;20043;-72
2021/01/10 03:18:34;;;;;;;26.92;12.63;;;3.70;99.10;;;;;;5074390;28;20032;-72
2021/01/10 03:21:00;;;;;;;24.55;11.70;;;3.70;99.00;;;;;;5075791;28;20315;-72
2021/01/10 03:23:25;;;;;;;27.48;13.30;;;3.70;98.90;;;;;;5073155;28;20036;-72
2021/01/10 03:25:51;;;;;;;24.85;12.93;;;3.80;99.00;;;;;;5073760;28;20036;-71
2021/01/10 03:28:17;;;;;;;24.88;12.52;;;3.90;98.90;;;;;;5073823;28;20045;-72
2021/01/10 03:30:42;;;;;;;27.10;12.73;;;3.80;98.80;;;;;;5074179;28;20086;-70
2021/01/10 03:33:08;;;;;;;27.75;13.07;;;3.90;98.90;;;;;;5075433;28;20028;-71
2021/01/10 03:35:34;;;;;;;25.70;12.52;;;4.00;98.70;;;;;;5074121;28;20033;-71
2021/01/10 03:38:02;;;;;;;22.35;12.50;;;3.90;98.70;;;;;;5073858;28;20060;-72
2021/01/10 03:40:28;;;;;;;26.90;13.63;;;4.00;98.90;;;;;;5074153;28;20048;-71
2021/01/10 03:42:54;;;;;;;30.52;13.77;;;4.10;98.80;;;;;;5073869;28;20565;-72
2021/01/10 03:45:20;;;;;;;25.92;12.98;;;3.90;98.70;;;;;;5075316;28;20107;-71
2021/01/10 03:47:45;;;;;;;26.33;13.73;;;4.00;98.90;;;;;;5073798;28;20032;-71
2021/01/10 03:50:11;;;;;;;22.75;12.48;;;3.90;98.80;;;;;;5073779;28;20111;-72
2021/01/10 03:52:38;;;;;;;29.85;12.95;;;3.90;98.80;;;;;;5073754;28;20178;-72
2021/01/10 03:55:05;;;;;;;27.98;13.32;;;3.90;98.70;;;;;;5073514;28;20036;-71
2021/01/10 03:57:30;;;;;;;22.50;12.57;;;3.90;98.70;;;;;;5073661;28;20025;-72
2021/01/10 03:59:56;;;;;;;25.10;11.65;;;3.90;98.70;;;;;;5075147;28;20039;-72
2021/01/10 04:02:22;;;;;;;29.90;14.23;;;3.90;98.80;;;;;;5073675;28;20404;-73
2021/01/10 04:04:47;;;;;;;31.88;14.10;;;4.00;98.90;;;;;;5072552;28;20116;-71
2021/01/10 04:07:13;;;;;;;30.13;13.57;;;3.90;98.70;;;;;;5073278;28;20116;-71
2021/01/10 04:09:38;;;;;;;26.40;14.00;;;3.80;98.80;;;;;;5073129;28;20024;-72
2021/01/10 04:12:04;;;;;;;30.42;14.00;;;3.90;98.90;;;;;;5074886;28;20102;-73
2021/01/10 04:14:30;;;;;;;25.05;12.43;;;3.90;98.90;;;;;;5073297;28;20033;-72
2021/01/10 04:16:55;;;;;;;28.83;13.15;;;4.00;98.90;;;;;;5072184;28;20036;-73
2021/01/10 04:19:21;;;;;;;29.35;13.90;;;3.90;98.90;;;;;;5073342;28;20036;-72
2021/01/10 04:21:47;;;;;;;26.67;13.48;;;3.80;98.90;;;;;;5073195;28;20072;-71
2021/01/10 04:24:12;;;;;;;31.40;13.30;;;3.90;99.00;;;;;;5074893;28;20033;-72
2021/01/10 04:26:47;;;;;;;29.30;13.93;;;4.00;98.90;;;;;;5073122;28;20067;-73
2021/01/10 04:29:13;;;;;;;25.13;12.73;;;4.00;98.80;;;;;;5072775;28;20048;-72
2021/01/10 04:31:39;;;;;;;28.83;14.02;;;3.80;98.90;;;;;;5073348;28;20054;-72
2021/01/10 04:34:06;;;;;;;24.75;11.82;;;3.90;99.10;;;;;;5073112;28;20094;-72
2021/01/10 04:36:31;;;;;;;28.92;14.15;;;3.80;99.10;;;;;;5072801;28;20021;-71
2021/01/10 04:38:57;;;;;;;28.77;14.15;;;3.80;99.20;;;;;;5073961;28;20037;-70
2021/01/10 04:41:24;;;;;;;24.40;13.05;;;3.90;99.10;;;;;;5071648;28;20090;-71
2021/01/10 04:43:52;;;;;;;28.95;13.68;;;4.00;99.10;;;;;;5072808;28;20033;-70
2021/01/10 04:46:18;;;;;;;28.27;13.73;;;3.90;99.10;;;;;;5072701;28;20035;-72
2021/01/10 04:48:45;;;;;;;29.67;13.80;;;3.90;99.10;;;;;;5072464;28;22691;-72
2021/01/10 04:51:14;;;;;;;26.77;13.77;;;4.00;99.00;;;;;;5074102;28;20025;-71
2021/01/10 04:53:45;;;;;;;28.50;14.20;;;4.00;98.90;;;;;;5072147;28;20162;-72
2021/01/10 04:56:13;;;;;;;29.73;12.85;;;3.90;98.80;;;;;;5071193;28;20044;-71
2021/01/10 04:58:41;;;;;;;29.17;13.85;;;4.00;99.00;;;;;;5072193;28;20539;-72
2021/01/10 05:01:16;;;;;;;27.23;11.93;;;3.90;98.90;;;;;;5072194;28;20445;-72
2021/01/10 05:03:42;;;;;;;26.88;13.52;;;4.00;99.00;;;;;;5071374;28;20024;-72
2021/01/10 05:06:08;;;;;;;28.02;13.73;;;3.80;99.00;;;;;;5072860;28;20028;-71
2021/01/10 05:08:34;;;;;;;28.40;12.88;;;3.70;99.10;;;;;;5054590;28;20037;-71
2021/01/10 05:11:00;;;;;;;26.45;13.20;;;3.70;99.10;;;;;;5052263;28;20098;-72
2021/01/10 05:13:26;;;;;;;30.13;14.45;;;3.70;99.10;;;;;;5060533;28;20381;-72
2021/01/10 05:15:55;;;;;;;31.70;14.45;;;3.70;99.10;;;;;;5068248;28;20056;-71
2021/01/10 05:18:22;;;;;;;34.10;15.25;;;3.70;99.10;;;;;;5053745;28;20455;-72
2021/01/10 05:20:52;;;;;;;30.65;14.48;;;3.70;99.00;;;;;;5072073;28;20032;-71
2021/01/10 05:23:20;;;;;;;32.42;14.07;;;3.70;99.20;;;;;;5070827;28;20079;-71
2021/01/10 05:25:46;;;;;;;35.15;14.70;;;3.70;99.20;;;;;;5060500;28;20028;-71
2021/01/10 05:28:12;;;;;;;33.75;15.38;;;3.70;99.20;;;;;;5058285;28;20093;-71
2021/01/10 05:30:37;;;;;;;34.00;15.38;;;3.80;99.30;;;;;;5071726;28;20026;-71
2021/01/10 05:33:05;;;;;;;32.10;14.32;;;3.70;99.20;;;;;;5073395;28;20515;-71
2021/01/10 05:35:51;;;;;;;31.77;15.90;;;3.70;99.20;;;;;;5070769;28;20451;-71
2021/01/10 05:38:32;;;;;;;30.27;14.82;;;3.70;99.20;;;;;;5071948;28;20064;-71
2021/01/10 05:41:00;;;;;;;33.67;15.95;;;3.80;99.30;;;;;;5071800;28;20413;-71
2021/01/10 05:43:27;;;;;;;33.78;15.60;;;3.80;99.20;;;;;;5071870;28;20458;-72
2021/01/10 05:45:54;;;;;;;33.22;15.50;;;3.80;99.20;;;;;;5071831;28;20147;-71
2021/01/10 05:48:21;;;;;;;33.45;15.13;;;3.80;99.20;;;;;;5072713;28;20470;-71
2021/01/10 05:50:49;;;;;;;32.28;14.73;;;3.90;99.20;;;;;;5071813;28;20470;-72
2021/01/10 05:53:15;;;;;;;;;;;3.90;99.10;;;;;;5071989;28;20036;-72
2021/01/10 05:55:55;;;;;;;28.52;14.05;;;3.80;98.90;;;;;;5071475;28;19943;-71
2021/01/10 05:58:34;;;;;;;31.75;14.48;;;4.00;99.10;;;;;;5071953;28;20051;-71
2021/01/10 06:01:10;;;;;;;28.77;13.93;;;3.80;98.90;;;;;;5071632;28;20040;-72
2021/01/10 06:03:36;;;;;;;25.13;12.98;;;3.70;98.90;;;;;;5071418;28;20037;-70
2021/01/10 06:06:04;;;;;;;31.30;15.05;;;3.60;98.90;;;;;;5073211;28;20037;-71
2021/01/10 06:08:34;;;;;;;32.60;15.23;;;3.60;99.10;;;;;;5071329;28;20068;-72
2021/01/10 06:11:21;;;;;;;33.47;14.52;;;3.80;99.10;;;;;;5070333;28;20032;-71
2021/01/10 06:13:54;;;;;;;36.83;15.82;;;3.70;99.10;;;;;;5070663;28;20090;-71
2021/01/10 06:16:25;;;;;;;34.15;15.55;;;3.70;99.20;;;;;;5071421;28;20029;-71
2021/01/10 06:19:04;;;;;;;35.85;16.25;;;3.60;99.20;;;;;;5071404;28;20032;-72
2021/01/10 06:21:31;;;;;;;38.97;16.05;;;3.70;99.30;;;;;;5071493;28;20098;-71
2021/01/10 06:23:59;;;;;;;33.20;15.35;;;3.70;99.30;;;;;;5072952;28;20033;-72
2021/01/10 06:26:27;;;;;;;33.83;16.40;;;3.70;99.30;;;;;;5071221;28;20043;-71
2021/01/10 06:29:02;;;;;;;;;;;3.70;99.20;;;;;;5072079;28;20043;-72
2021/01/10 06:31:33;;;;;;;34.55;14.85;;;3.60;99.20;;;;;;5071241;28;20333;-72
2021/01/10 06:34:01;;;;;;;24.23;13.40;;;3.70;99.40;;;;;;5065561;28;20339;-71
2021/01/10 06:36:29;;;;;;;;;;;3.60;99.20;;;;;;5050951;28;20025;-71
2021/01/10 06:39:04;;;;;;;34.75;14.90;;;3.70;99.30;;;;;;5072408;28;20246;-71
2021/01/10 06:41:36;;;;;;;29.55;13.68;;;3.70;99.30;;;;;;5070079;28;20048;-72
2021/01/10 06:44:06;;;;;;;27.20;13.50;;;3.70;99.10;;;;;;5071213;28;20036;-73
2021/01/10 06:46:32;;;;;;;32.10;14.07;;;3.70;99.10;;;;;;5062099;28;20025;-73
2021/01/10 06:49:01;;;;;;;31.58;14.43;;;3.60;99.20;;;;;;5055660;28;20032;-72
2021/01/10 06:51:29;;;;;;;31.92;15.00;;;3.50;99.20;;;;;;5071077;28;20063;-71
2021/01/10 06:53:55;;;;;;;27.83;14.38;;;3.60;99.30;;;;;;5072728;28;20391;-72
2021/01/10 06:56:21;;;;;;;33.05;14.50;;;3.60;99.20;;;;;;5070256;28;20047;-72
2021/01/10 06:59:05;;;;;;;37.78;15.85;;;3.60;99.20;;;;;;5071239;28;20033;-72
2021/01/10 07:01:48;;;;;;;31.33;14.30;;;3.50;99.10;;;;;;5074460;28;20056;-72
2021/01/10 07:04:44;;;;;;;28.42;13.18;;;3.50;99.20;;;;;;5074654;28;20051;-72
2021/01/10 07:07:33;;;;;;;32.35;14.40;;;3.50;99.20;;;;;;5073354;28;20103;-72
2021/01/10 07:09:59;;;;;;;34.67;15.32;;;3.50;99.30;;;;;;5073379;28;20033;-72
2021/01/10 07:12:25;;;;;;;28.58;14.02;;;3.50;99.30;;;;;;5074419;28;20081;-72
2021/01/10 07:14:51;;;;;;;32.25;14.93;;;3.50;99.30;;;;;;5076043;28;20016;-71
2021/01/10 07:17:18;;;;;;;33.22;15.30;;;3.60;99.50;;;;;;5074375;28;20037;-72
2021/01/10 07:19:46;;;;;;;36.25;14.68;;;3.60;99.20;;;;;;5074473;28;20036;-73
2021/01/10 07:22:30;;;;;;;33.28;15.00;;;3.60;99.20;;;;;;5067526;28;20029;-72
2021/01/10 07:24:56;;;;;;;33.95;16.10;;;3.50;99.20;;;;;;5058691;28;20035;-72
2021/01/10 07:27:30;;;;;;;31.40;15.30;;;3.40;99.20;;;;;;5075704;28;20028;-73
2021/01/10 07:29:57;;;;;;;35.13;15.30;;;3.40;99.30;;;;;;5074338;28;20174;-71
2021/01/10 07:32:36;;;;;;;32.03;14.60;;;3.40;99.20;;;;;;5073839;28;20063;-71
2021/01/10 07:35:05;;;;;;;34.17;15.38;;;3.30;99.30;;;;;;5073478;28;20102;-72
2021/01/10 07:37:32;;;;;;;34.42;15.65;;;3.10;99.30;;;;;;5073833;28;20132;-72
2021/01/10 07:40:06;;;;;;;34.92;15.10;;;3.20;99.50;;;;;;5072199;28;20033;-71
2021/01/10 07:42:34;;;;;;;32.88;15.40;;;3.20;99.40;;;;;;5073502;28;20024;-71
2021/01/10 07:45:22;;;;;;;45.45;18.40;;;3.20;99.50;;;;;;5075298;28;20111;-71
2021/01/10 07:47:52;;;;;;;35.75;16.05;;;3.40;99.60;;;;;;5053200;28;20033;-70
2021/01/10 07:50:25;;;;;;;40.72;16.75;;;3.40;99.50;;;;;;5053982;28;20459;-70
2021/01/10 07:52:52;;;;;;;39.00;16.88;;;3.40;99.50;;;;;;5053872;28;20103;-71
2021/01/10 07:55:20;;;;;;;35.47;17.08;;;3.50;99.50;;;;;;5052531;28;20021;-73
2021/01/10 07:57:47;;;;;;;37.97;16.17;;;3.60;99.40;;;;;;5053505;28;20431;-71
2021/01/10 08:00:17;;;;;;;42.30;16.70;;;3.50;99.20;;;;;;5055285;28;20021;-71
2021/01/10 08:03:02;;;;;;;43.35;18.42;;;3.60;99.40;;;;;;5072988;28;20047;-71
2021/01/10 08:05:39;;;;;;;45.70;18.90;;;3.60;99.50;;;;;;5073816;28;20037;-73
2021/01/10 08:08:14;;;;;;;49.17;17.73;;;3.60;99.50;;;;;;5073778;28;20366;-73
2021/01/10 08:10:47;;;;;;;40.83;18.30;;;3.70;99.50;;;;;;5073302;28;20105;-71
2021/01/10 08:13:33;;;;;;;45.63;17.42;;;3.70;99.40;;;;;;5073788;28;20032;-81
2021/01/10 08:16:00;;;;;;;39.17;17.80;;;3.80;99.40;;;;;;5073561;28;20036;-72
2021/01/10 08:18:33;;;;;;;49.47;19.77;;;3.70;99.40;;;;;;5073850;28;20024;-72
2021/01/10 08:20:59;;;;;;;43.70;17.85;;;3.80;99.50;;;;;;5075141;28;20458;-71
2021/01/10 08:23:25;;;;;;;47.80;19.25;;;3.80;99.50;;;;;;5073410;28;20083;-76
2021/01/10 08:26:01;;;;;;;48.22;18.98;;;3.90;99.50;;;;;;5073124;28;20068;-73
2021/01/10 08:28:26;;;;;;;40.78;17.92;;;3.80;99.50;;;;;;5073035;28;20047;-71
2021/01/10 08:30:52;;;;;;;44.20;18.27;;;3.80;99.60;;;;;;5073178;28;20119;-76
2021/01/10 08:33:21;;;;;;;41.58;17.48;;;3.90;99.80;;;;;;5073843;28;20414;-75
2021/01/10 08:35:48;;;;;;;45.17;18.20;;;3.90;99.60;;;;;;5073070;28;20045;-73
2021/01/10 08:38:14;;;;;;;46.10;19.52;;;3.90;99.60;;;;;;5072743;28;20045;-73
2021/01/10 08:40:41;;;;;;;46.97;19.75;;;4.00;99.60;;;;;;5072760;28;20112;-74
2021/01/10 08:43:07;;;;;;;48.03;19.17;;;4.10;99.60;;;;;;5072757;28;20121;-74
2021/01/10 08:45:33;;;;;;;45.22;19.10;;;4.20;99.50;;;;;;5072630;28;20566;-75
2021/01/10 08:48:05;;;;;;;45.35;19.75;;;4.20;99.50;;;;;;5073160;28;20028;-71
2021/01/10 08:50:39;;;;;;;49.05;20.42;;;4.30;99.60;;;;;;5071653;28;20031;-75
2021/01/10 08:53:06;;;;;;;47.95;19.63;;;4.10;99.30;;;;;;5072670;28;20474;-74
2021/01/10 08:55:33;;;;;;;48.07;19.63;;;4.20;99.40;;;;;;5071543;28;20101;-74
2021/01/10 08:58:00;;;;;;;60.10;23.90;;;4.20;99.40;;;;;;5072622;28;20043;-74
2021/01/10 09:00:27;;;;;;;48.37;20.03;;;4.30;99.30;;;;;;5072248;28;20044;-77
2021/01/10 09:02:53;;;;;;;50.35;19.70;;;4.30;99.20;;;;;;5074313;28;20028;-77
2021/01/10 09:05:26;;;;;;;49.83;19.90;;;4.40;99.20;;;;;;5072512;28;20466;-72
2021/01/10 09:08:05;;;;;;;54.28;20.45;;;4.40;99.20;;;;;;5072551;28;20123;-72
2021/01/10 09:10:37;;;;;;;45.58;19.02;;;4.50;99.00;;;;;;5072381;28;20119;-72
2021/01/10 09:13:06;;;;;;;49.95;19.67;;;4.50;99.00;;;;;;5072358;28;20025;-72
2021/01/10 09:15:38;;;;;;;46.63;19.30;;;4.50;98.90;;;;;;5071248;28;20039;-71
2021/01/10 09:18:14;;;;;;;46.58;19.38;;;4.50;98.90;;;;;;5074053;28;20103;-72
2021/01/10 09:20:54;;;;;;;49.67;18.83;;;4.50;98.90;;;;;;5072623;28;20459;-72
2021/01/10 09:23:20;;;;;;;50.08;19.23;;;4.50;98.90;;;;;;5070359;28;20463;-73
2021/01/10 09:25:46;;;;;;;48.35;19.80;;;4.50;98.90;;;;;;5072267;28;20044;-74
2021/01/10 09:28:17;;;;;;;47.90;19.92;;;4.50;98.90;;;;;;5071370;28;20048;-73
2021/01/10 09:30:57;;;;;;;47.50;18.90;;;4.40;98.70;;;;;;5072292;28;20025;-75
2021/01/10 09:33:29;;;;;;;48.75;19.20;;;4.60;99.00;;;;;;5073739;28;20024;-74
2021/01/10 09:35:57;;;;;;;44.05;19.17;;;4.50;98.70;;;;;;5072244;28;20037;-74
2021/01/10 09:38:25;;;;;;;47.63;19.23;;;4.60;98.90;;;;;;5055277;28;20125;-74
2021/01/10 09:41:15;;;;;;;53.33;22.20;;;4.60;98.80;;;;;;5073012;28;20033;-85
2021/01/10 09:43:49;;;;;;;47.15;18.15;;;4.70;98.70;;;;;;5072689;28;20123;-81
2021/01/10 09:46:21;;;;;;;43.22;19.15;;;4.70;98.60;;;;;;5072271;28;20029;-71
2021/01/10 09:48:52;;;;;;;43.40;17.92;;;4.70;98.60;;;;;;5071872;28;20036;-71
2021/01/10 09:51:19;;;;;;;47.88;19.85;;;4.70;98.50;;;;;;5073786;28;20063;-73
2021/01/10 09:53:47;;;;;;;43.95;18.10;;;4.70;98.60;;;;;;5071842;28;20041;-72
2021/01/10 09:56:38;;;;;;;44.33;18.92;;;4.70;98.60;;;;;;5072128;28;20064;-71
2021/01/10 09:59:40;;;;;;;43.47;18.20;;;4.70;98.60;;;;;;5072033;28;20358;-71
2021/01/10 10:02:32;;;;;;;48.88;20.08;;;4.90;98.60;;;;;;5041072;28;20049;-69
2021/01/10 10:05:19;;;;;;;46.97;19.23;;;4.90;98.50;;;;;;5051731;28;20032;-71
2021/01/10 10:07:51;;;;;;;45.10;18.67;;;5.00;98.50;;;;;;5062426;28;20643;-72
2021/01/10 10:10:28;;;;;;;46.50;19.40;;;4.90;98.40;;;;;;5071759;28;20044;-71
2021/01/10 10:12:58;;;;;;;48.75;18.38;;;4.90;98.40;;;;;;5071764;28;20350;-76
2021/01/10 10:15:42;;;;;;;53.15;20.40;;;5.00;98.50;;;;;;5073224;28;20328;-71
2021/01/10 10:18:15;;;;;;;45.80;18.25;;;5.00;98.50;;;;;;5071861;28;20190;-72
2021/01/10 10:20:40;;;;;;;49.08;19.38;;;5.10;98.40;;;;;;5071828;28;20079;-70
2021/01/10 10:23:12;;;;;;;47.13;17.83;;;5.20;98.10;;;;;;5071908;28;20107;-72
2021/01/10 10:25:38;;;;;;;45.15;18.80;;;5.20;98.10;;;;;;5071971;28;20049;-70
2021/01/10 10:28:05;;;;;;;47.47;19.08;;;5.20;98.10;;;;;;5071663;28;20036;-70
2021/01/10 10:30:32;;;;;;;38.60;17.52;;;5.20;98.10;;;;;;5071285;28;20024;-70
2021/01/10 10:32:58;;;;;;;45.20;18.20;;;5.30;98.00;;;;;;5073101;28;20017;-72
2021/01/10 10:35:24;;;;;;;42.30;17.88;;;5.30;97.90;;;;;;5074786;28;20131;-74
2021/01/10 10:37:51;;;;;;;43.40;18.88;;;5.40;97.90;;;;;;5074110;28;20486;-74
2021/01/10 10:40:17;;;;;;;49.08;18.75;;;5.60;97.90;;;;;;5074182;28;20033;-74
2021/01/10 10:42:43;;;;;;;52.13;20.33;;;5.60;97.60;;;;;;5075299;28;20361;-73
2021/01/10 10:45:09;;;;;;;43.83;19.15;;;5.60;97.60;;;;;;5077090;28;20497;-74
2021/01/10 10:47:35;;;;;;;46.85;18.70;;;5.70;97.60;;;;;;5075263;28;20043;-74
2021/01/10 10:50:02;;;;;;;46.60;19.83;;;5.60;97.60;;;;;;5075059;28;20036;-74
2021/01/10 10:52:28;;;;;;;55.13;21.63;;;5.70;97.60;;;;;;5073909;28;20032;-73
2021/01/10 10:54:53;;;;;;;47.55;18.77;;;5.60;97.50;;;;;;5074876;28;20121;-74
2021/01/10 10:57:19;;;;;;;46.90;19.08;;;5.60;97.60;;;;;;5076517;28;20115;-75
2021/01/10 10:59:45;;;;;;;47.83;19.15;;;5.70;97.60;;;;;;5075150;28;20040;-76
2021/01/10 11:02:11;;;;;;;38.35;17.38;;;5.80;97.50;;;;;;5073988;28;20459;-75
2021/01/10 11:04:42;;;;;;;43.67;18.27;;;5.80;97.40;;;;;;5073505;28;20044;-74
2021/01/10 11:07:09;;;;;;;45.75;18.55;;;5.80;97.30;;;;;;5074749;28;20036;-75
2021/01/10 11:09:34;;;;;;;44.22;19.27;;;5.70;97.30;;;;;;5073476;28;20100;-75
2021/01/10 11:12:00;;;;;;;43.97;18.02;;;5.80;97.40;;;;;;5076283;28;20312;-75
2021/01/10 11:14:26;;;;;;;46.38;19.40;;;5.90;97.30;;;;;;5073773;28;20043;-76
2021/01/10 11:16:53;;;;;;;40.83;17.85;;;5.90;97.30;;;;;;5074673;28;20040;-74
2021/01/10 11:19:20;;;;;;;43.08;18.27;;;5.90;97.30;;;;;;5073351;28;20055;-79
2021/01/10 11:21:48;;;;;;;41.60;18.13;;;6.00;97.40;;;;;;5074372;28;20396;-74
2021/01/10 11:24:14;;;;;;;40.25;16.05;;;6.20;97.20;;;;;;5075861;28;20401;-75
2021/01/10 11:26:42;;;;;;;38.40;17.45;;;6.30;97.00;;;;;;5074578;28;20458;-75
2021/01/10 11:29:08;;;;;;;38.00;16.57;;;6.20;96.80;;;;;;5074380;28;20068;-75
2021/01/10 11:31:36;;;;;;;41.83;17.65;;;6.30;96.80;;;;;;5074698;28;20064;-74
2021/01/10 11:34:03;;;;;;;35.47;16.35;;;6.40;96.70;;;;;;5074493;28;20068;-88
2021/01/10 11:36:28;;;;;;;36.95;15.25;;;6.70;96.50;;;;;;5073048;28;20462;-75
2021/01/10 11:38:55;;;;;;;37.70;14.88;;;6.80;96.40;;;;;;5075536;28;20097;-74
2021/01/10 11:41:21;;;;;;;39.35;14.90;;;6.90;96.10;;;;;;5074127;28;20048;-72
2021/01/10 11:43:47;;;;;;;73.05;28.67;;;7.00;95.90;;;;;;5074207;28;20040;-74
2021/01/10 11:46:14;;;;;;;39.38;16.50;;;7.00;95.60;;;;;;5073506;28;20025;-82
2021/01/10 11:48:42;;;;;;;32.92;14.00;;;7.00;95.40;;;;;;5072572;28;20051;-73
2021/01/10 11:51:11;;;;;;;34.88;13.68;;;6.90;95.20;;;;;;5074652;28;20028;-75
2021/01/10 11:53:37;;;;;;;27.20;11.63;;;6.90;95.10;;;;;;5073899;28;20115;-76
2021/01/10 11:56:04;;;;;;;30.25;12.15;;;6.90;94.70;;;;;;5074251;28;20032;-79
2021/01/10 11:58:30;;;;;;;25.42;12.30;;;7.00;94.80;;;;;;5073923;28;20028;-74
2021/01/10 12:00:56;;;;;;;32.45;14.65;;;7.00;94.80;;;;;;5073840;28;20035;-74
2021/01/10 12:03:23;;;;;;;27.33;10.98;;;7.00;94.90;;;;;;5075278;28;20029;-74
2021/01/10 12:05:49;;;;;;;31.38;11.73;;;6.90;94.50;;;;;;5073776;28;20036;-74
2021/01/10 12:08:15;;;;;;;27.52;11.73;;;6.90;94.50;;;;;;5073589;28;20029;-70
2021/01/10 12:10:41;;;;;;;29.45;11.20;;;7.00;94.70;;;;;;5073645;28;20115;-74
2021/01/10 12:13:08;;;;;;;30.95;11.85;;;7.00;94.50;;;;;;5073885;28;20060;-74
2021/01/10 12:15:35;;;;;;;24.85;11.10;;;7.00;94.70;;;;;;5073485;28;20032;-74
2021/01/10 12:18:05;;;;;;;24.75;10.65;;;7.00;94.70;;;;;;5075302;28;20016;-80
2021/01/10 12:20:31;;;;;;;24.25;9.98;;;7.00;94.70;;;;;;5072567;28;20458;-80
2021/01/10 12:22:57;;;;;;;24.30;10.48;;;7.10;94.60;;;;;;5073053;28;20048;-82
2021/01/10 12:25:24;;;;;;;26.02;11.07;;;7.00;94.50;;;;;;5073109;28;20039;-81
2021/01/10 12:27:50;;;;;;;25.55;10.52;;;7.10;94.90;;;;;;5072052;28;20028;-73
2021/01/10 12:30:16;;;;;;;20.48;9.73;;;7.00;94.40;;;;;;5074804;28;20017;-75
2021/01/10 12:32:42;;;;;;;21.45;9.32;;;7.10;94.60;;;;;;5072129;28;20084;-75
2021/01/10 12:35:09;;;;;;;24.30;10.40;;;7.10;94.40;;;;;;5073149;28;20024;-74
2021/01/10 12:37:36;;;;;;;24.05;9.25;;;7.20;94.50;;;;;;5072619;28;20094;-71
2021/01/10 12:40:07;;;;;;;23.77;9.27;;;7.00;94.30;;;;;;5073072;28;20032;-73
2021/01/10 12:42:33;;;;;;;22.88;8.95;;;7.00;94.50;;;;;;5072907;28;20028;-73
2021/01/10 12:45:00;;;;;;;17.27;9.07;;;7.00;94.60;;;;;;5074420;28;20047;-72
2021/01/10 12:47:26;;;;;;;21.85;9.00;;;6.90;94.40;;;;;;5072781;28;20029;-74